Time;durP1;ratioP1;P1;durP2;ratioP2;P2;SDS_P1;SDS_P2;PMS_P1;PMS_P2;Temp;Humidity;BMP_temperature;BMP_pressure;BME280_temperature;BME280_humidity;BME280_pressure;Samples;Min_cycle;Max_cycle;Signal;HPM_P1;HPM_P2
2021/12/30 00:01:24;;;;;;;24.07;13.70;;;6.30;99.90;;;;;;5060322;28;20220;-68
2021/12/30 00:03:50;;;;;;;23.50;15.27;;;6.30;99.90;;;;;;5049406;28;20194;-68
2021/12/30 00:06:18;;;;;;;23.83;14.90;;;6.40;99.90;;;;;;5060863;28;20199;-68
2021/12/30 00:08:45;;;;;;;22.57;15.27;;;6.30;99.90;;;;;;5059736;28;20970;-68
2021/12/30 00:11:10;;;;;;;21.70;16.70;;;6.40;99.90;;;;;;5065271;28;20273;-67
2021/12/30 00:13:39;;;;;;;19.03;14.33;;;6.40;99.90;;;;;;5059503;28;20363;-67
2021/12/30 00:16:05;;;;;;;22.47;14.60;;;6.40;99.90;;;;;;5055847;28;20390;-66
2021/12/30 00:18:31;;;;;;;19.27;13.60;;;6.30;99.90;;;;;;5066812;28;20686;-67
2021/12/30 00:20:56;;;;;;;22.13;16.37;;;6.30;99.90;;;;;;5063023;28;20197;-66
2021/12/30 00:23:23;;;;;;;18.63;14.57;;;6.40;99.90;;;;;;5065595;28;20182;-66
2021/12/30 00:25:49;;;;;;;20.23;14.70;;;6.40;99.90;;;;;;5055872;28;20704;-65
2021/12/30 00:28:19;;;;;;;18.87;13.30;;;6.50;99.90;;;;;;5062038;28;20228;-65
2021/12/30 00:30:46;;;;;;;19.97;15.17;;;6.50;99.90;;;;;;5050212;28;20203;-66
2021/12/30 00:33:12;;;;;;;18.10;15.77;;;6.50;99.90;;;;;;5053350;28;20238;-64
2021/12/30 00:35:38;;;;;;;27.60;16.47;;;6.50;99.90;;;;;;5053898;28;20638;-65
2021/12/30 00:38:04;;;;;;;19.13;14.47;;;6.50;99.90;;;;;;5055773;28;20802;-66
2021/12/30 00:40:34;;;;;;;23.37;16.27;;;6.40;99.90;;;;;;5057217;28;20249;-66
2021/12/30 00:43:00;;;;;;;21.97;15.07;;;6.40;99.90;;;;;;5065732;28;20170;-66
2021/12/30 00:45:27;;;;;;;20.90;15.37;;;6.50;99.90;;;;;;5059354;28;20592;-66
2021/12/30 00:47:53;;;;;;;21.77;14.93;;;6.50;99.90;;;;;;5059108;28;20657;-66
2021/12/30 00:50:19;;;;;;;21.60;15.80;;;6.50;99.90;;;;;;5053214;28;20194;-65
2021/12/30 00:52:45;;;;;;;19.93;14.93;;;6.50;99.90;;;;;;5058816;28;20202;-67
2021/12/30 00:55:10;;;;;;;23.13;15.73;;;6.50;99.90;;;;;;5055428;28;20202;-65
2021/12/30 00:57:36;;;;;;;23.27;16.17;;;6.50;99.90;;;;;;5054297;28;20210;-66
2021/12/30 01:00:07;;;;;;;21.67;14.93;;;6.50;99.90;;;;;;5055473;28;20228;-65
2021/12/30 01:02:33;;;;;;;18.07;14.63;;;6.40;99.90;;;;;;5056993;28;20187;-64
2021/12/30 01:04:59;;;;;;;23.57;16.27;;;6.50;99.90;;;;;;5057537;28;20194;-66
2021/12/30 01:07:24;;;;;;;20.80;15.40;;;6.60;99.90;;;;;;5057143;28;20198;-67
2021/12/30 01:09:50;;;;;;;22.93;15.97;;;6.60;99.90;;;;;;5054645;28;20545;-65
2021/12/30 01:12:15;;;;;;;19.70;14.17;;;6.50;99.90;;;;;;5058429;28;20603;-65
2021/12/30 01:14:46;;;;;;;18.40;14.47;;;6.40;99.90;;;;;;5057450;28;20438;-65
2021/12/30 01:17:18;;;;;;;20.47;15.83;;;6.50;99.90;;;;;;5057330;28;20214;-65
2021/12/30 01:19:44;;;;;;;19.43;14.77;;;6.50;99.90;;;;;;5055135;28;20202;-65
2021/12/30 01:22:12;;;;;;;19.70;14.63;;;6.60;99.90;;;;;;5055000;28;20812;-66
2021/12/30 01:24:38;;;;;;;16.23;13.07;;;6.60;99.90;;;;;;5053188;28;20668;-65
2021/12/30 01:27:04;;;;;;;20.37;15.33;;;6.70;99.90;;;;;;5057816;28;20194;-65
2021/12/30 01:29:30;;;;;;;18.17;14.43;;;6.60;99.90;;;;;;5053804;28;20214;-64
2021/12/30 01:31:57;;;;;;;18.37;14.23;;;6.60;99.90;;;;;;5055944;28;20191;-66
2021/12/30 01:34:23;;;;;;;19.23;13.73;;;6.60;99.90;;;;;;5053549;28;20205;-65
2021/12/30 01:36:49;;;;;;;18.57;14.40;;;6.60;99.90;;;;;;5056872;28;20206;-66
2021/12/30 01:39:17;;;;;;;19.27;14.27;;;6.50;99.90;;;;;;5061455;28;20676;-66
2021/12/30 01:41:44;;;;;;;17.67;13.73;;;6.60;99.90;;;;;;5061410;28;20222;-65
2021/12/30 01:44:10;;;;;;;18.23;13.97;;;6.60;99.90;;;;;;5056948;28;20712;-66
2021/12/30 01:46:37;;;;;;;18.37;14.13;;;6.60;99.90;;;;;;5056657;28;20277;-66
2021/12/30 01:49:03;;;;;;;18.90;14.67;;;6.50;99.90;;;;;;5062878;28;20198;-65
2021/12/30 01:51:29;;;;;;;19.50;14.77;;;6.60;99.90;;;;;;5060386;28;20197;-66
2021/12/30 01:53:54;;;;;;;17.07;13.20;;;6.60;99.90;;;;;;5071010;28;21112;-65
2021/12/30 01:56:20;;;;;;;17.57;13.27;;;6.60;99.90;;;;;;5052377;28;20198;-69
2021/12/30 01:58:47;;;;;;;15.40;12.90;;;6.50;99.90;;;;;;5063133;28;20213;-68
2021/12/30 02:01:12;;;;;;;17.63;14.43;;;6.60;99.90;;;;;;5056724;28;20704;-64
2021/12/30 02:03:38;;;;;;;18.17;14.30;;;6.50;99.90;;;;;;5056580;28;20190;-67
2021/12/30 02:06:04;;;;;;;19.37;13.00;;;6.70;99.90;;;;;;5066592;28;20208;-67
2021/12/30 02:08:29;;;;;;;18.67;14.37;;;6.70;99.90;;;;;;5050802;28;20182;-67
2021/12/30 02:10:55;;;;;;;18.17;14.17;;;6.60;99.90;;;;;;5065469;28;20194;-65
2021/12/30 02:13:21;;;;;;;14.80;13.20;;;6.50;99.90;;;;;;5058371;28;20217;-65
2021/12/30 02:15:47;;;;;;;18.63;14.07;;;6.50;99.90;;;;;;5058884;28;20230;-66
2021/12/30 02:18:13;;;;;;;19.17;13.97;;;6.60;99.90;;;;;;5056110;28;20222;-66
2021/12/30 02:20:55;;;;;;;18.93;14.77;;;6.60;99.90;;;;;;5057391;28;20622;-66
2021/12/30 02:23:34;;;;;;;17.93;12.60;;;6.60;99.90;;;;;;5050895;28;20202;-67
2021/12/30 02:26:10;;;;;;;17.27;13.73;;;6.60;99.90;;;;;;5052907;28;20704;-68
2021/12/30 02:28:37;;;;;;;15.90;13.93;;;6.60;99.90;;;;;;5049928;28;20206;-68
2021/12/30 02:31:11;;;;;;;18.27;14.60;;;6.60;99.90;;;;;;5062176;28;20669;-67
2021/12/30 02:33:37;;;;;;;16.33;13.73;;;6.70;99.90;;;;;;5054756;28;20826;-65
2021/12/30 02:36:03;;;;;;;18.13;13.13;;;6.70;99.90;;;;;;5061814;28;20248;-65
2021/12/30 02:38:29;;;;;;;18.37;13.83;;;6.60;99.90;;;;;;5045182;28;20695;-65
2021/12/30 02:40:57;;;;;;;18.23;14.20;;;6.60;99.90;;;;;;5063991;28;20759;-66
2021/12/30 02:43:28;;;;;;;18.57;14.00;;;6.60;99.90;;;;;;5057070;28;20566;-65
2021/12/30 02:45:55;;;;;;;17.57;13.43;;;6.60;99.90;;;;;;5064293;28;20252;-65
2021/12/30 02:48:25;;;;;;;18.73;14.13;;;6.60;99.90;;;;;;5051999;28;20648;-65
2021/12/30 02:50:53;;;;;;;16.50;13.40;;;6.70;99.90;;;;;;5064720;28;20747;-65
2021/12/30 02:53:20;;;;;;;16.40;13.70;;;6.80;99.90;;;;;;5044455;28;20794;-65
2021/12/30 02:55:47;;;;;;;19.80;13.90;;;6.80;99.90;;;;;;5064406;28;20680;-66
2021/12/30 02:58:13;;;;;;;17.03;13.27;;;6.80;99.90;;;;;;5055561;28;20222;-66
2021/12/30 03:00:40;;;;;;;14.80;12.63;;;6.80;99.90;;;;;;5060171;28;20194;-66
2021/12/30 03:03:06;;;;;;;18.30;12.40;;;6.80;99.90;;;;;;5056255;28;20507;-66
2021/12/30 03:05:32;;;;;;;16.37;12.23;;;6.80;99.90;;;;;;5064286;28;20295;-66
2021/12/30 03:07:57;;;;;;;15.80;11.97;;;6.90;99.90;;;;;;5051520;28;20213;-67
2021/12/30 03:10:25;;;;;;;15.00;12.70;;;6.80;99.90;;;;;;5064621;28;20183;-67
2021/12/30 03:12:55;;;;;;;15.37;12.23;;;6.80;99.90;;;;;;5054463;28;20727;-67
2021/12/30 03:15:22;;;;;;;13.70;11.23;;;7.00;99.90;;;;;;5064409;28;20228;-65
2021/12/30 03:17:47;;;;;;;14.17;11.47;;;7.00;99.90;;;;;;5059999;28;20218;-66
2021/12/30 03:20:13;;;;;;;13.47;10.40;;;7.10;99.90;;;;;;5063331;28;20190;-65
2021/12/30 03:22:40;;;;;;;14.10;11.10;;;7.20;99.90;;;;;;5051419;28;20202;-66
2021/12/30 03:25:07;;;;;;;12.57;10.60;;;7.20;99.90;;;;;;5064487;28;20218;-66
2021/12/30 03:27:33;;;;;;;13.37;11.03;;;7.30;99.90;;;;;;5049932;28;20222;-66
2021/12/30 03:29:59;;;;;;;12.97;9.70;;;7.20;99.90;;;;;;5063778;28;20198;-67
2021/12/30 03:32:25;;;;;;;13.27;10.07;;;7.30;99.90;;;;;;5055873;28;20205;-66
2021/12/30 03:34:50;;;;;;;12.37;9.67;;;7.30;99.90;;;;;;5052683;28;20198;-66
2021/12/30 03:37:16;;;;;;;12.17;9.57;;;7.30;99.90;;;;;;5062867;28;20214;-66
2021/12/30 03:39:41;;;;;;;11.50;9.07;;;7.30;99.90;;;;;;5052741;28;20526;-65
2021/12/30 03:42:07;;;;;;;10.47;9.07;;;7.30;99.90;;;;;;5062067;28;20202;-66
2021/12/30 03:44:33;;;;;;;10.43;9.33;;;7.40;99.90;;;;;;5047843;28;20831;-66
2021/12/30 03:46:59;;;;;;;9.73;8.43;;;7.30;99.90;;;;;;5063590;28;20277;-68
2021/12/30 03:49:25;;;;;;;11.00;8.40;;;7.30;99.90;;;;;;5068105;28;20170;-66
2021/12/30 03:51:53;;;;;;;11.13;9.87;;;7.30;99.90;;;;;;5064844;28;20308;-67
2021/12/30 03:54:18;;;;;;;11.53;8.87;;;7.30;99.90;;;;;;5051653;28;20182;-67
2021/12/30 03:56:44;;;;;;;10.43;8.33;;;7.40;99.90;;;;;;5065871;28;20297;-65
2021/12/30 03:59:10;;;;;;;10.17;9.27;;;7.40;99.90;;;;;;5061878;28;20179;-65
2021/12/30 04:01:36;;;;;;;9.30;8.33;;;7.40;99.90;;;;;;5059791;28;20257;-66
2021/12/30 04:04:02;;;;;;;10.03;9.07;;;7.40;99.90;;;;;;5064067;28;20300;-67
2021/12/30 04:06:27;;;;;;;10.80;9.33;;;7.50;99.90;;;;;;5067281;28;20201;-66
2021/12/30 04:08:55;;;;;;;11.53;9.93;;;7.40;99.90;;;;;;5057728;28;20255;-67
2021/12/30 04:11:24;;;;;;;15.43;9.73;;;7.40;99.90;;;;;;5066891;28;20204;-67
2021/12/30 04:13:49;;;;;;;14.87;10.20;;;7.40;99.90;;;;;;5062104;28;20221;-67
2021/12/30 04:16:15;;;;;;;12.53;10.17;;;7.40;99.90;;;;;;5067924;28;20823;-66
2021/12/30 04:18:40;;;;;;;19.70;12.13;;;7.40;99.90;;;;;;5051796;28;20222;-66
2021/12/30 04:21:06;;;;;;;22.83;11.67;;;7.40;99.90;;;;;;5067289;28;20220;-68
2021/12/30 04:23:31;;;;;;;19.43;11.87;;;7.40;99.90;;;;;;5060648;28;20213;-67
2021/12/30 04:25:57;;;;;;;18.40;12.53;;;7.50;99.90;;;;;;5067130;28;20209;-67
2021/12/30 04:28:23;;;;;;;17.90;12.77;;;7.50;99.90;;;;;;5056064;28;20255;-67
2021/12/30 04:30:48;;;;;;;20.67;12.07;;;7.60;99.90;;;;;;5067352;28;20190;-67
2021/12/30 04:33:14;;;;;;;23.77;14.80;;;7.60;99.90;;;;;;5053099;28;20202;-67
2021/12/30 04:35:39;;;;;;;19.93;14.40;;;7.60;99.90;;;;;;5064556;28;20589;-66
2021/12/30 04:38:05;;;;;;;25.83;14.27;;;7.60;99.90;;;;;;5054672;28;20688;-66
2021/12/30 04:40:30;;;;;;;28.37;13.63;;;7.60;99.90;;;;;;5067243;28;20186;-67
2021/12/30 04:42:56;;;;;;;25.30;14.23;;;7.60;99.90;;;;;;5065291;28;20209;-67
2021/12/30 04:45:22;;;;;;;27.53;15.33;;;7.60;99.90;;;;;;5066673;28;20213;-67
2021/12/30 04:47:47;;;;;;;29.33;17.10;;;7.60;99.90;;;;;;5055543;28;20206;-67
2021/12/30 04:50:14;;;;;;;23.90;14.57;;;7.60;99.90;;;;;;5066085;28;20573;-68
2021/12/30 04:52:40;;;;;;;25.13;15.37;;;7.70;99.90;;;;;;5056882;28;20679;-66
2021/12/30 04:55:06;;;;;;;23.73;14.13;;;7.70;99.90;;;;;;5060008;28;20206;-67
2021/12/30 04:57:32;;;;;;;29.10;16.33;;;7.70;99.90;;;;;;5064135;28;20752;-69
2021/12/30 04:59:57;;;;;;;30.50;16.27;;;7.70;99.90;;;;;;5056699;28;20331;-67
2021/12/30 05:02:28;;;;;;;24.67;16.63;;;7.80;99.90;;;;;;5064771;28;20581;-66
2021/12/30 05:04:54;;;;;;;29.73;16.80;;;7.90;99.90;;;;;;5054652;28;20225;-66
2021/12/30 05:07:19;;;;;;;25.57;15.67;;;7.80;99.90;;;;;;5059020;28;20645;-65
2021/12/30 05:09:45;;;;;;;31.93;17.47;;;7.90;99.90;;;;;;5046370;28;20289;-65
2021/12/30 05:12:10;;;;;;;27.63;17.07;;;7.90;99.90;;;;;;5063904;28;20202;-65
2021/12/30 05:14:36;;;;;;;34.93;16.33;;;7.90;99.90;;;;;;5054718;28;20320;-65
2021/12/30 05:17:03;;;;;;;29.50;16.87;;;8.00;99.90;;;;;;5057737;28;20875;-67
2021/12/30 05:19:30;;;;;;;27.63;17.13;;;8.00;99.90;;;;;;5066439;28;20230;-66
2021/12/30 05:21:55;;;;;;;27.53;18.00;;;8.00;99.90;;;;;;5063002;28;20183;-66
2021/12/30 05:24:21;;;;;;;32.43;17.77;;;8.00;99.90;;;;;;5054475;28;20186;-67
2021/12/30 05:26:46;;;;;;;28.97;17.13;;;8.00;99.90;;;;;;5063715;28;20659;-66
2021/12/30 05:29:13;;;;;;;30.57;16.53;;;8.10;99.90;;;;;;5056320;28;20198;-67
2021/12/30 05:31:38;;;;;;;30.93;16.40;;;8.10;99.90;;;;;;5065674;28;20197;-67
2021/12/30 05:34:04;;;;;;;29.97;19.50;;;8.10;99.90;;;;;;5054924;28;20203;-67
2021/12/30 05:36:29;;;;;;;30.57;17.10;;;8.20;99.90;;;;;;5064659;28;20206;-67
2021/12/30 05:38:55;;;;;;;29.30;17.37;;;8.30;99.90;;;;;;5059446;28;20225;-67
2021/12/30 05:41:22;;;;;;;28.27;16.80;;;8.30;99.90;;;;;;5065209;28;20274;-67
2021/12/30 05:43:48;;;;;;;29.83;17.47;;;8.30;99.90;;;;;;5055414;28;20198;-66
2021/12/30 05:46:13;;;;;;;28.33;17.27;;;8.30;99.90;;;;;;5065936;28;20194;-66
2021/12/30 05:48:39;;;;;;;25.83;16.53;;;8.30;99.90;;;;;;5050641;28;20206;-67
2021/12/30 05:51:04;;;;;;;28.53;16.33;;;8.20;99.90;;;;;;5065699;28;20574;-66
2021/12/30 05:53:30;;;;;;;28.73;17.30;;;8.20;99.90;;;;;;5050204;28;20341;-66
2021/12/30 05:55:56;;;;;;;29.47;17.00;;;8.20;99.90;;;;;;5065911;28;20206;-67
2021/12/30 05:58:21;;;;;;;27.47;17.17;;;8.20;99.90;;;;;;5054800;28;20228;-66
2021/12/30 06:00:49;;;;;;;34.43;16.37;;;8.20;99.90;;;;;;5065536;28;20214;-67
2021/12/30 06:03:18;;;;;;;30.73;17.83;;;8.20;99.90;;;;;;5051320;28;20412;-67
2021/12/30 06:05:44;;;;;;;36.00;19.47;;;8.20;99.90;;;;;;5065339;28;20229;-67
2021/12/30 06:08:10;;;;;;;35.57;18.43;;;8.20;99.90;;;;;;5056362;28;20602;-68
2021/12/30 06:10:37;;;;;;;35.17;17.43;;;8.30;99.90;;;;;;5064839;28;20921;-67
2021/12/30 06:13:02;;;;;;;28.23;17.07;;;8.40;99.90;;;;;;5055065;28;20334;-66
2021/12/30 06:15:28;;;;;;;32.50;17.73;;;8.40;99.90;;;;;;5065329;28;20316;-66
2021/12/30 06:17:53;;;;;;;36.43;17.80;;;8.40;99.90;;;;;;5063561;28;20218;-66
2021/12/30 06:20:19;;;;;;;27.27;15.70;;;8.40;99.90;;;;;;5064476;28;20663;-66
2021/12/30 06:22:46;;;;;;;27.93;16.60;;;8.40;99.90;;;;;;5054982;28;20199;-66
2021/12/30 06:25:12;;;;;;;28.23;15.90;;;8.40;99.90;;;;;;5064916;28;20197;-66
2021/12/30 06:27:38;;;;;;;29.10;17.13;;;8.40;99.90;;;;;;5056187;28;20213;-66
2021/12/30 06:30:05;;;;;;;24.33;16.17;;;8.40;99.90;;;;;;5063418;28;20562;-68
2021/12/30 06:32:31;;;;;;;25.30;16.43;;;8.40;99.90;;;;;;5061227;28;20220;-66
2021/12/30 06:34:56;;;;;;;24.30;15.43;;;8.40;99.90;;;;;;5061951;28;20182;-66
2021/12/30 06:37:22;;;;;;;30.07;14.37;;;8.40;99.90;;;;;;5057277;28;20727;-66
2021/12/30 06:39:47;;;;;;;24.63;14.43;;;8.40;99.90;;;;;;5055919;28;20179;-67
2021/12/30 06:42:12;;;;;;;30.00;16.57;;;8.40;99.90;;;;;;5063313;28;20213;-67
2021/12/30 06:44:38;;;;;;;28.73;16.53;;;8.40;99.90;;;;;;5055452;28;20182;-67
2021/12/30 06:47:05;;;;;;;24.60;15.20;;;8.40;99.90;;;;;;5059836;28;20204;-66
2021/12/30 06:49:36;;;;;;;29.37;16.50;;;8.30;99.90;;;;;;5056502;28;20193;-66
2021/12/30 06:52:05;;;;;;;32.07;16.70;;;8.30;99.90;;;;;;5044080;28;20762;-67
2021/12/30 06:54:31;;;;;;;29.87;15.60;;;8.30;99.90;;;;;;5054618;28;20189;-68
2021/12/30 06:56:59;;;;;;;35.33;17.10;;;8.30;99.90;;;;;;5058522;28;20211;-64
2021/12/30 06:59:25;;;;;;;26.47;15.67;;;8.30;99.90;;;;;;5054793;28;20183;-66
2021/12/30 07:01:51;;;;;;;24.57;15.70;;;8.20;99.90;;;;;;5053824;28;20190;-66
2021/12/30 07:04:16;;;;;;;28.67;14.57;;;8.20;99.90;;;;;;5056173;28;20178;-66
2021/12/30 07:06:42;;;;;;;28.80;15.43;;;8.20;99.90;;;;;;5058985;28;20190;-66
2021/12/30 07:09:07;;;;;;;22.40;15.50;;;8.20;99.90;;;;;;5055272;28;20214;-65
2021/12/30 07:11:33;;;;;;;32.47;17.00;;;8.10;99.90;;;;;;5064398;28;20645;-70
2021/12/30 07:13:59;;;;;;;29.47;15.67;;;8.10;99.90;;;;;;5049145;28;20198;-69
2021/12/30 07:16:24;;;;;;;29.97;16.43;;;8.10;99.90;;;;;;5065108;28;20602;-68
2021/12/30 07:18:50;;;;;;;22.07;15.20;;;8.20;99.90;;;;;;5053001;28;20225;-67
2021/12/30 07:21:16;;;;;;;27.90;16.60;;;8.30;99.90;;;;;;5061946;28;20733;-67
2021/12/30 07:23:42;;;;;;;25.50;15.23;;;8.30;99.90;;;;;;5058321;28;20751;-67
2021/12/30 07:26:08;;;;;;;32.27;14.23;;;8.40;99.90;;;;;;5069030;28;20193;-67
2021/12/30 07:28:33;;;;;;;29.97;14.77;;;8.50;99.90;;;;;;5052930;28;20203;-67
2021/12/30 07:30:58;;;;;;;24.30;13.97;;;8.50;99.90;;;;;;5061584;28;20236;-65
2021/12/30 07:33:24;;;;;;;26.40;14.97;;;8.60;99.90;;;;;;5061198;28;20252;-65
2021/12/30 07:35:50;;;;;;;25.00;13.43;;;8.50;99.90;;;;;;5064516;28;20632;-65
2021/12/30 07:38:15;;;;;;;21.83;13.67;;;8.60;99.90;;;;;;5053456;28;20206;-66
2021/12/30 07:40:41;;;;;;;20.03;13.00;;;8.60;99.90;;;;;;5065731;28;20711;-65
2021/12/30 07:43:06;;;;;;;23.47;13.03;;;8.70;99.90;;;;;;5057000;28;20672;-65
2021/12/30 07:45:31;;;;;;;17.27;11.53;;;8.80;99.90;;;;;;5066336;28;20217;-70
2021/12/30 07:47:57;;;;;;;24.33;12.93;;;8.70;99.90;;;;;;5052721;28;20186;-71
2021/12/30 07:50:23;;;;;;;21.27;13.20;;;8.60;99.90;;;;;;5061403;28;20199;-71
2021/12/30 07:52:48;;;;;;;29.87;14.00;;;8.60;99.90;;;;;;5053847;28;20387;-70
2021/12/30 07:55:14;;;;;;;21.03;13.23;;;8.60;99.90;;;;;;5058070;28;20795;-70
2021/12/30 07:57:40;;;;;;;23.87;12.00;;;8.60;99.90;;;;;;5057160;28;20236;-70
2021/12/30 08:00:10;;;;;;;20.70;12.17;;;8.60;99.90;;;;;;5061202;28;20203;-70
2021/12/30 08:02:36;;;;;;;24.13;13.10;;;8.50;99.90;;;;;;5060100;28;20178;-70
2021/12/30 08:05:02;;;;;;;23.20;14.27;;;8.50;99.90;;;;;;5061462;28;20193;-70
2021/12/30 08:07:28;;;;;;;22.97;11.80;;;8.50;99.90;;;;;;5054406;28;20221;-70
2021/12/30 08:09:54;;;;;;;31.37;13.50;;;8.60;99.90;;;;;;5064773;28;20572;-69
2021/12/30 08:12:20;;;;;;;29.13;14.50;;;8.60;99.90;;;;;;5060333;28;20271;-70
2021/12/30 08:14:45;;;;;;;25.07;14.53;;;8.70;99.90;;;;;;5064154;28;20444;-70
2021/12/30 08:17:11;;;;;;;28.33;13.27;;;8.70;99.90;;;;;;5057935;28;20291;-70
2021/12/30 08:19:37;;;;;;;27.47;13.43;;;8.70;99.90;;;;;;5067131;28;20191;-70
2021/12/30 08:22:03;;;;;;;31.90;14.90;;;8.70;99.90;;;;;;5056128;28;20684;-70
2021/12/30 08:24:29;;;;;;;34.27;13.30;;;8.70;99.90;;;;;;5067020;28;20288;-71
2021/12/30 08:26:55;;;;;;;27.57;12.87;;;8.80;99.90;;;;;;5051627;28;20230;-71
2021/12/30 08:29:21;;;;;;;20.13;13.83;;;8.80;99.90;;;;;;5067179;28;20276;-71
2021/12/30 08:31:47;;;;;;;22.73;13.73;;;8.80;99.90;;;;;;5055346;28;20359;-72
2021/12/30 08:34:12;;;;;;;24.03;12.33;;;8.90;99.90;;;;;;5066029;28;21064;-72
2021/12/30 08:36:38;;;;;;;23.63;12.97;;;8.90;99.90;;;;;;5055385;28;20202;-71
2021/12/30 08:39:03;;;;;;;28.60;12.90;;;9.00;99.90;;;;;;5066449;28;20558;-71
2021/12/30 08:41:29;;;;;;;27.70;12.47;;;9.00;99.90;;;;;;5050978;28;20227;-71
2021/12/30 08:43:54;;;;;;;25.67;13.97;;;9.10;99.90;;;;;;5066636;28;20520;-70
2021/12/30 08:46:20;;;;;;;21.70;11.80;;;9.10;99.90;;;;;;5055156;28;20203;-71
2021/12/30 08:48:45;;;;;;;24.07;12.20;;;9.20;99.90;;;;;;5066188;28;20660;-70
2021/12/30 08:51:11;;;;;;;23.43;13.13;;;9.20;99.90;;;;;;5054926;28;20199;-71
2021/12/30 08:53:41;;;;;;;22.57;13.33;;;9.30;99.90;;;;;;5066430;28;20645;-70
2021/12/30 08:56:14;;;;;;;20.33;11.83;;;9.30;99.90;;;;;;5054534;28;20357;-70
2021/12/30 08:58:40;;;;;;;25.97;12.23;;;9.30;99.90;;;;;;5064117;28;20297;-71
2021/12/30 09:01:05;;;;;;;24.67;11.47;;;9.30;99.90;;;;;;5053741;28;20330;-70
2021/12/30 09:03:31;;;;;;;24.47;13.40;;;9.30;99.90;;;;;;5065877;28;20203;-70
2021/12/30 09:05:56;;;;;;;27.77;12.27;;;9.20;99.90;;;;;;5054571;28;20199;-70
2021/12/30 09:08:22;;;;;;;29.00;14.50;;;9.30;99.90;;;;;;5066202;28;20214;-70
2021/12/30 09:10:49;;;;;;;26.50;13.33;;;9.30;99.90;;;;;;5055654;28;20194;-71
2021/12/30 09:13:18;;;;;;;29.23;16.37;;;9.30;99.90;;;;;;5066154;28;20193;-70
2021/12/30 09:15:44;;;;;;;25.50;12.07;;;9.40;99.90;;;;;;5061270;28;20255;-71
2021/12/30 09:18:10;;;;;;;23.57;11.87;;;9.40;99.90;;;;;;5063967;28;20555;-70
2021/12/30 09:20:40;;;;;;;18.90;10.80;;;9.50;99.90;;;;;;5063693;28;20203;-70
2021/12/30 09:23:07;;;;;;;20.97;11.13;;;9.50;99.90;;;;;;5049688;28;20270;-70
2021/12/30 09:25:34;;;;;;;19.97;10.57;;;9.60;99.90;;;;;;5057505;28;20610;-71
2021/12/30 09:28:00;;;;;;;21.03;11.53;;;9.70;99.90;;;;;;5059565;28;20520;-71
2021/12/30 09:30:27;;;;;;;31.13;11.07;;;9.90;99.90;;;;;;5058413;28;20199;-71
2021/12/30 09:32:54;;;;;;;19.53;9.37;;;9.80;99.90;;;;;;5058500;28;20192;-71
2021/12/30 09:35:21;;;;;;;19.27;9.60;;;9.70;99.90;;;;;;5058994;28;20677;-71
2021/12/30 09:37:47;;;;;;;17.17;9.20;;;9.80;99.90;;;;;;5058162;28;20222;-71
2021/12/30 09:40:14;;;;;;;19.60;8.73;;;9.80;99.90;;;;;;5059509;28;20218;-71
2021/12/30 09:42:46;;;;;;;17.60;9.77;;;9.80;99.90;;;;;;5056464;28;20183;-70
2021/12/30 09:45:13;;;;;;;18.23;9.27;;;9.90;99.90;;;;;;5055120;28;20578;-70
2021/12/30 09:47:57;;;;;;;15.33;9.77;;;9.80;99.90;;;;;;5056721;28;20311;-70
2021/12/30 09:50:29;;;;;;;14.07;8.27;;;9.80;99.90;;;;;;5057289;28;20209;-71
2021/12/30 09:52:56;;;;;;;23.97;9.27;;;9.80;99.90;;;;;;5049400;28;20186;-71
2021/12/30 09:55:21;;;;;;;17.40;8.37;;;9.90;99.90;;;;;;5063117;28;20222;-72
2021/12/30 09:57:47;;;;;;;16.63;7.97;;;9.90;99.90;;;;;;5057189;28;20222;-72
2021/12/30 10:00:14;;;;;;;18.03;8.83;;;9.90;99.90;;;;;;5063474;28;20669;-71
2021/12/30 10:02:41;;;;;;;18.47;8.57;;;9.90;99.90;;;;;;5051137;28;20187;-71
2021/12/30 10:05:24;;;;;;;16.27;9.07;;;10.00;99.90;;;;;;5058453;28;20733;-70
2021/12/30 10:08:06;;;;;;;18.27;8.63;;;10.00;99.90;;;;;;5061247;28;20189;-71
2021/12/30 10:10:34;;;;;;;13.73;7.67;;;10.10;99.90;;;;;;5054040;28;20277;-71
2021/12/30 10:13:13;;;;;;;16.57;8.70;;;10.00;99.90;;;;;;5050576;28;20186;-71
2021/12/30 10:15:44;;;;;;;17.33;7.87;;;10.10;99.90;;;;;;5054709;28;20222;-71
2021/12/30 10:18:09;;;;;;;17.20;8.00;;;10.00;99.90;;;;;;5063066;28;20222;-71
2021/12/30 10:20:39;;;;;;;17.63;8.13;;;10.00;99.90;;;;;;5060330;28;20278;-71
2021/12/30 10:23:21;;;;;;;23.37;9.73;;;10.00;99.90;;;;;;5045386;28;20654;-70
2021/12/30 10:25:52;;;;;;;20.83;8.83;;;10.00;99.90;;;;;;5054162;28;20215;-71
2021/12/30 10:28:32;;;;;;;14.90;9.40;;;10.10;99.90;;;;;;5061257;28;20198;-71
2021/12/30 10:31:14;;;;;;;20.13;9.70;;;10.10;99.90;;;;;;5043618;28;20556;-70
2021/12/30 10:33:47;;;;;;;18.27;8.10;;;10.10;99.90;;;;;;5051871;28;20186;-70
2021/12/30 10:36:24;;;;;;;15.13;9.27;;;10.00;99.90;;;;;;5053459;28;20223;-71
2021/12/30 10:38:50;;;;;;;17.10;9.53;;;9.90;99.90;;;;;;5064893;28;20277;-70
2021/12/30 10:41:16;;;;;;;19.33;9.93;;;9.90;99.90;;;;;;5060551;28;20840;-71
2021/12/30 10:46:19;;;;;;;13.57;8.87;;;10.00;99.90;;;;;;5057773;28;20237;-70
2021/12/30 10:49:09;;;;;;;17.43;10.53;;;10.00;99.90;;;;;;5065032;28;20241;-71
2021/12/30 10:51:44;;;;;;;19.27;9.37;;;10.00;99.90;;;;;;5054479;28;20211;-71
2021/12/30 10:54:19;;;;;;;17.90;9.37;;;10.00;99.90;;;;;;5054332;28;20290;-70
2021/12/30 10:56:56;;;;;;;25.07;10.30;;;9.90;99.90;;;;;;5047725;28;20560;-71
2021/12/30 10:59:47;;;;;;;22.80;9.33;;;10.00;99.90;;;;;;5062405;28;20194;-71
2021/12/30 11:02:17;;;;;;;16.60;8.80;;;10.00;99.90;;;;;;5062234;28;20190;-71
2021/12/30 11:04:49;;;;;;;15.37;9.40;;;10.00;99.90;;;;;;5068487;28;20234;-71
2021/12/30 11:07:18;;;;;;;21.63;10.47;;;10.00;99.90;;;;;;5060753;28;20544;-71
2021/12/30 11:09:48;;;;;;;16.80;7.97;;;10.10;99.90;;;;;;5069561;28;20197;-69
2021/12/30 11:12:14;;;;;;;19.33;9.70;;;10.30;99.90;;;;;;5060678;28;20919;-71
2021/12/30 11:14:40;;;;;;;19.43;10.57;;;10.30;99.90;;;;;;5068312;28;20586;-70
2021/12/30 11:17:22;;;;;;;18.70;9.40;;;10.20;99.90;;;;;;5053559;28;20213;-70
2021/12/30 11:19:55;;;;;;;15.03;9.60;;;10.20;99.90;;;;;;5055440;28;20199;-71
2021/12/30 11:22:23;;;;;;;20.10;9.17;;;10.20;99.90;;;;;;5057184;28;20191;-71
2021/12/30 11:24:51;;;;;;;20.97;9.63;;;10.10;99.90;;;;;;5066169;28;20196;-70
2021/12/30 11:27:17;;;;;;;14.57;9.17;;;10.10;99.90;;;;;;5068219;28;20195;-70
2021/12/30 11:29:47;;;;;;;18.47;8.67;;;10.10;99.90;;;;;;5061410;28;20211;-70
2021/12/30 11:32:17;;;;;;;19.10;9.77;;;10.10;99.90;;;;;;5054785;28;20185;-71
2021/12/30 11:34:44;;;;;;;14.10;8.57;;;10.10;99.90;;;;;;5057288;28;20747;-71
2021/12/30 11:37:11;;;;;;;19.33;9.30;;;10.10;99.90;;;;;;5055694;28;20220;-74
2021/12/30 11:39:44;;;;;;;15.33;9.53;;;10.10;99.90;;;;;;5066840;28;20996;-71
2021/12/30 11:42:20;;;;;;;15.83;9.10;;;10.00;99.90;;;;;;5053676;28;20188;-71
2021/12/30 11:44:53;;;;;;;18.33;10.27;;;10.10;99.90;;;;;;5055310;28;20202;-72
2021/12/30 11:47:39;;;;;;;15.47;9.13;;;10.10;99.90;;;;;;5048748;28;20539;-71
2021/12/30 11:50:33;;;;;;;16.37;10.10;;;10.10;99.90;;;;;;5063337;28;20674;-71
2021/12/30 11:53:11;;;;;;;24.40;10.93;;;10.10;99.90;;;;;;5060516;28;20200;-72
2021/12/30 11:55:58;;;;;;;19.43;10.47;;;10.10;99.90;;;;;;5063443;28;20207;-72
2021/12/30 11:58:36;;;;;;;14.97;9.57;;;10.10;99.90;;;;;;5067008;28;20226;-71
2021/12/30 12:01:24;;;;;;;19.73;8.90;;;10.10;99.90;;;;;;5049419;28;20212;-71
2021/12/30 12:03:52;;;;;;;11.03;8.47;;;10.20;99.90;;;;;;5055659;28;20203;-71
2021/12/30 12:06:24;;;;;;;15.40;9.37;;;10.20;99.90;;;;;;5056371;28;20204;-72
2021/12/30 12:08:54;;;;;;;19.40;9.50;;;10.20;99.90;;;;;;5068096;28;20194;-71
2021/12/30 12:11:20;;;;;;;11.97;9.43;;;10.20;99.90;;;;;;5058739;28;20576;-71
2021/12/30 12:13:48;;;;;;;13.13;10.40;;;10.10;99.90;;;;;;5067071;28;20187;-71
2021/12/30 12:16:15;;;;;;;13.67;9.70;;;10.10;99.90;;;;;;5049202;28;20762;-72
2021/12/30 12:19:04;;;;;;;14.37;9.67;;;10.00;99.90;;;;;;5067411;28;20715;-71
2021/12/30 12:21:47;;;;;;;18.03;9.83;;;10.00;99.90;;;;;;5055858;28;20222;-73
2021/12/30 12:24:21;;;;;;;19.40;8.90;;;10.10;99.90;;;;;;5059711;28;20183;-70
2021/12/30 12:26:52;;;;;;;15.20;9.50;;;10.10;99.90;;;;;;5054691;28;20251;-72
2021/12/30 12:29:38;;;;;;;21.40;10.43;;;10.10;99.90;;;;;;5059517;28;20287;-71
2021/12/30 12:32:14;;;;;;;19.07;11.17;;;10.00;99.90;;;;;;5051280;28;20188;-70
2021/12/30 12:34:44;;;;;;;17.60;10.40;;;10.00;99.90;;;;;;5065594;28;20217;-71
2021/12/30 12:37:40;;;;;;;18.37;10.27;;;9.90;99.90;;;;;;5058519;28;20224;-72
2021/12/30 12:40:31;;;;;;;18.60;10.83;;;9.90;99.90;;;;;;5059466;28;20193;-72
2021/12/30 12:43:07;;;;;;;26.03;10.67;;;9.90;99.90;;;;;;5062377;28;20178;-71
2021/12/30 12:45:51;;;;;;;21.60;10.40;;;9.90;99.90;;;;;;5050521;28;20286;-71